createdAt,value
2022-08-11T00:02:07.000Z,26.14
2022-08-11T00:07:19.143Z,26.16
2022-08-11T00:12:22.391Z,26.16
2022-08-11T00:17:30.950Z,26.19
2022-08-11T00:22:35.173Z,26.04
2022-08-11T00:27:40.890Z,26.08
2022-08-11T00:32:53.282Z,26.07
2022-08-11T00:37:58.006Z,26.00
2022-08-11T00:43:20.212Z,25.88
2022-08-11T00:48:30.741Z,25.84
2022-08-11T00:53:47.697Z,25.87
2022-08-11T00:59:34.136Z,25.85
2022-08-11T01:05:05.669Z,25.78
2022-08-11T01:10:27.353Z,25.80
2022-08-11T01:16:12.697Z,25.75
2022-08-11T01:22:06.541Z,25.71
2022-08-11T01:27:28.461Z,25.68
2022-08-11T01:33:10.160Z,25.68
2022-08-11T01:38:51.193Z,25.71
2022-08-11T01:44:31.785Z,25.72
2022-08-11T01:50:08.328Z,25.72
2022-08-11T01:55:24.029Z,25.72
2022-08-11T02:00:32.457Z,25.70
2022-08-11T02:05:52.148Z,25.68
2022-08-11T02:11:25.533Z,25.67
2022-08-11T02:16:40.993Z,25.59
2022-08-11T02:22:08.502Z,25.58
2022-08-11T02:27:19.817Z,25.61
2022-08-11T02:32:48.439Z,25.55
2022-08-11T02:38:09.822Z,25.48
2022-08-11T02:43:30.211Z,25.47
2022-08-11T02:49:12.258Z,25.44
2022-08-11T02:54:24.880Z,25.43
2022-08-11T02:59:51.469Z,25.43
2022-08-11T03:05:03.931Z,25.32
2022-08-11T03:10:14.623Z,25.34
2022-08-11T03:15:44.606Z,25.28
2022-08-11T03:20:58.715Z,25.18
2022-08-11T03:26:06.852Z,25.16
2022-08-11T03:31:26.181Z,24.96
2022-08-11T03:37:16.680Z,24.06
2022-08-11T03:42:33.444Z,23.55
2022-08-11T03:48:10.857Z,23.12
2022-08-11T03:53:28.033Z,22.43
2022-08-11T03:59:07.574Z,21.88
2022-08-11T04:04:39.392Z,21.51
2022-08-11T04:10:33.860Z,20.95
2022-08-11T04:16:12.483Z,20.97
2022-08-11T04:21:37.808Z,20.66
2022-08-11T04:27:22.701Z,20.44
2022-08-11T04:32:48.009Z,20.32
2022-08-11T04:38:44.096Z,20.44
2022-08-11T04:44:25.375Z,20.30
2022-08-11T04:50:23.450Z,20.41
2022-08-11T04:56:20.977Z,20.38
2022-08-11T05:01:42.743Z,20.28
2022-08-11T05:07:13.042Z,20.10
2022-08-11T05:12:30.960Z,20.12
2022-08-11T05:17:56.346Z,20.03
2022-08-11T05:23:22.644Z,20.03
2022-08-11T05:28:51.863Z,20.07
2022-08-11T05:34:20.500Z,20.10
2022-08-11T05:39:44.210Z,20.22
2022-08-11T05:45:15.401Z,20.25
2022-08-11T05:50:37.349Z,20.30
2022-08-11T05:56:03.243Z,20.40
2022-08-11T06:01:08.870Z,20.51
2022-08-11T06:06:12.116Z,20.76
2022-08-11T06:11:18.536Z,20.80
2022-08-11T06:16:44.372Z,21.03
2022-08-11T06:21:48.843Z,21.07
2022-08-11T06:32:18.765Z,21.17
2022-08-11T06:37:36.225Z,21.46
2022-08-11T06:42:53.120Z,21.45
2022-08-11T06:48:01.058Z,21.62
2022-08-11T06:53:07.161Z,21.71
2022-08-11T06:58:33.348Z,21.82
2022-08-11T07:03:43.953Z,22.11
2022-08-11T07:09:27.102Z,22.31
2022-08-11T07:14:50.671Z,22.45
2022-08-11T07:20:17.374Z,22.53
2022-08-11T07:25:40.128Z,22.62
2022-08-11T07:30:44.824Z,22.70
2022-08-11T07:35:55.537Z,22.83
2022-08-11T07:41:00.065Z,22.89
2022-08-11T07:46:22.936Z,22.99
2022-08-11T07:51:44.290Z,23.08
2022-08-11T07:56:55.522Z,23.16
2022-08-11T08:02:31.425Z,23.26
2022-08-11T08:07:56.584Z,23.37
2022-08-11T08:13:17.813Z,23.44
2022-08-11T08:18:26.329Z,23.52
2022-08-11T08:23:34.287Z,23.59
2022-08-11T08:28:37.918Z,23.66
2022-08-11T08:33:42.998Z,23.74
2022-08-11T08:38:51.075Z,23.82
2022-08-11T08:44:05.913Z,23.89
2022-08-11T08:49:26.855Z,23.95
2022-08-11T08:54:37.440Z,24.01
2022-08-11T08:59:48.831Z,24.13
2022-08-11T09:04:53.414Z,24.24
2022-08-11T09:10:00.161Z,24.37
2022-08-11T09:15:08.021Z,24.41
2022-08-11T09:20:14.046Z,24.44
2022-08-11T09:25:37.534Z,24.51
2022-08-11T09:30:43.759Z,24.54
2022-08-11T09:35:48.471Z,24.63
2022-08-11T09:40:56.275Z,24.69
2022-08-11T09:46:01.852Z,24.71
2022-08-11T09:51:06.208Z,24.78
2022-08-11T09:56:35.688Z,24.80
2022-08-11T10:01:43.921Z,24.78
2022-08-11T10:07:04.847Z,24.84
2022-08-11T10:12:12.084Z,24.94
2022-08-11T10:17:17.101Z,24.92
2022-08-11T10:22:37.799Z,25.05
2022-08-11T10:28:32.973Z,25.07
2022-08-11T10:33:47.600Z,25.18
2022-08-11T10:39:02.399Z,25.22
2022-08-11T10:44:09.065Z,25.20
2022-08-11T10:49:12.349Z,25.29
2022-08-11T10:54:34.408Z,25.33
2022-08-11T10:59:39.242Z,25.36
2022-08-11T11:04:58.254Z,25.39
2022-08-11T11:10:05.018Z,25.43
2022-08-11T11:15:28.268Z,25.45
2022-08-11T11:20:38.625Z,25.49
2022-08-11T11:26:27.574Z,25.49
2022-08-11T11:31:46.942Z,25.58
2022-08-11T11:36:51.485Z,25.67
2022-08-11T11:41:56.507Z,25.70
2022-08-11T11:47:02.515Z,25.69
2022-08-11T11:52:07.756Z,25.75
2022-08-11T11:57:29.556Z,25.80
2022-08-11T12:02:34.461Z,25.79
2022-08-11T12:08:05.099Z,25.79
2022-08-11T12:13:34.863Z,25.80
2022-08-11T12:18:40.954Z,25.80
2022-08-11T12:24:04.722Z,25.78
2022-08-11T12:29:09.391Z,25.78
2022-08-11T12:34:15.253Z,25.78
2022-08-11T12:40:15.840Z,25.80
2022-08-11T12:45:29.673Z,25.80
2022-08-11T12:50:52.993Z,25.80
2022-08-11T12:56:15.615Z,25.83
2022-08-11T13:01:36.578Z,25.87
2022-08-11T13:06:42.482Z,25.89
2022-08-11T13:12:04.769Z,25.95
2022-08-11T13:17:40.249Z,25.97
2022-08-11T13:22:50.298Z,25.99
2022-08-11T13:27:59.650Z,26.02
2022-08-11T13:33:06.344Z,26.05
2022-08-11T13:38:18.476Z,26.10
2022-08-11T13:43:24.504Z,26.10
2022-08-11T13:48:28.262Z,26.14
2022-08-11T13:53:33.725Z,26.17
2022-08-11T13:58:40.026Z,26.20
2022-08-11T14:04:30.552Z,26.23
2022-08-11T14:09:11.588Z,26.22
2022-08-11T14:14:20.134Z,26.23
2022-08-11T14:19:26.255Z,26.24
2022-08-11T14:24:30.779Z,26.25
2022-08-11T14:29:48.850Z,26.24
2022-08-11T14:34:52.484Z,26.24
2022-08-11T14:40:02.823Z,26.28
2022-08-11T14:45:57.853Z,26.29
2022-08-11T14:50:58.341Z,26.32
2022-08-11T14:56:16.776Z,26.36
2022-08-11T15:01:37.470Z,26.38
2022-08-11T15:06:40.654Z,26.43
2022-08-11T15:12:02.784Z,26.46
2022-08-11T15:17:09.951Z,26.48
2022-08-11T15:22:30.220Z,26.51
2022-08-11T15:27:53.118Z,26.56
2022-08-11T15:33:14.991Z,26.60
2022-08-11T15:38:21.041Z,26.64
2022-08-11T15:43:48.216Z,26.67
2022-08-11T15:48:57.226Z,26.74
2022-08-11T15:54:08.957Z,26.75
2022-08-11T15:59:41.916Z,26.82
2022-08-11T16:04:48.204Z,26.84
2022-08-11T16:09:59.607Z,26.95
2022-08-11T16:15:25.169Z,27.05
2022-08-11T16:20:30.406Z,27.02
2022-08-11T16:27:04.998Z,27.08
2022-08-11T16:31:10.763Z,27.09
2022-08-11T16:36:34.417Z,27.10
2022-08-11T16:41:57.397Z,27.13
2022-08-11T16:47:03.566Z,27.14
2022-08-11T16:52:11.067Z,27.18
2022-08-11T16:57:35.819Z,27.20
2022-08-11T17:03:03.764Z,27.20
2022-08-11T17:08:26.549Z,27.23
2022-08-11T17:13:36.183Z,27.24
2022-08-11T17:18:46.634Z,27.25
2022-08-11T17:23:54.827Z,27.25
2022-08-11T17:29:00.428Z,27.22
2022-08-11T17:34:23.357Z,27.22
2022-08-11T17:39:30.576Z,27.26
2022-08-11T17:44:52.970Z,27.24
2022-08-11T17:50:09.190Z,27.29
2022-08-11T17:55:51.938Z,27.31
2022-08-11T18:00:58.432Z,27.28
2022-08-11T18:06:16.245Z,27.27
2022-08-11T18:12:11.240Z,27.27
2022-08-11T18:17:18.470Z,27.26
2022-08-11T18:22:43.202Z,27.25
2022-08-11T18:28:06.352Z,27.23
2022-08-11T18:39:11.494Z,27.20
2022-08-11T18:44:33.452Z,27.19
2022-08-11T18:50:03.965Z,26.99
2022-08-11T18:55:35.252Z,26.94
2022-08-11T19:00:57.350Z,26.94
2022-08-11T19:06:38.376Z,27.01
2022-08-11T19:12:04.728Z,27.05
2022-08-11T19:17:44.683Z,27.08
2022-08-11T19:23:07.874Z,27.12
2022-08-11T19:28:30.632Z,27.11
2022-08-11T19:34:02.776Z,27.18
2022-08-11T19:39:32.951Z,27.20
2022-08-11T19:44:55.316Z,27.23
2022-08-11T19:50:21.894Z,27.18
2022-08-11T19:55:46.397Z,27.23
2022-08-11T20:01:08.659Z,27.29
2022-08-11T20:06:31.311Z,27.30
2022-08-11T20:11:55.699Z,27.31
2022-08-11T20:17:18.511Z,27.38
2022-08-11T20:22:39.456Z,27.40
2022-08-11T20:28:03.215Z,27.39
2022-08-11T20:33:27.135Z,27.42
2022-08-11T20:38:49.823Z,27.28
2022-08-11T20:44:12.470Z,27.34
2022-08-11T20:49:50.399Z,27.36
2022-08-11T20:55:19.160Z,27.38
2022-08-11T21:00:47.473Z,27.39
2022-08-11T21:06:11.125Z,27.39
2022-08-11T21:11:33.612Z,27.34
2022-08-11T21:16:55.434Z,27.32
2022-08-11T21:22:21.321Z,27.42
2022-08-11T21:27:51.952Z,27.36
2022-08-11T21:33:13.427Z,27.35
2022-08-11T21:38:36.897Z,27.39
2022-08-11T21:43:59.215Z,27.48
2022-08-11T21:49:20.932Z,27.51
2022-08-11T21:54:43.808Z,27.56
2022-08-11T22:00:10.981Z,27.56
2022-08-11T22:05:34.754Z,27.49
2022-08-11T22:10:57.263Z,27.63
2022-08-11T22:16:18.997Z,27.59
2022-08-11T22:22:02.691Z,27.62
2022-08-11T22:27:23.616Z,27.49
2022-08-11T22:32:45.172Z,27.41
2022-08-11T22:38:06.504Z,27.40
2022-08-11T22:43:28.569Z,27.55
2022-08-11T22:48:50.272Z,27.59
2022-08-11T22:54:13.713Z,27.59
2022-08-11T22:59:37.555Z,27.58
2022-08-11T23:04:59.070Z,27.56
2022-08-11T23:10:19.799Z,27.56
2022-08-11T23:15:42.545Z,27.58
2022-08-11T23:21:04.913Z,27.54
2022-08-11T23:26:26.005Z,27.50
2022-08-11T23:31:52.914Z,27.47
2022-08-11T23:37:13.867Z,27.42
2022-08-11T23:42:36.034Z,27.39
2022-08-11T23:48:00.384Z,27.33
2022-08-11T23:53:21.414Z,27.26
2022-08-11T23:58:42.012Z,27.20
